createdAt,value
2017-01-11T00:00:30.405Z,91.47
2017-01-11T00:01:35.608Z,91.8
2017-01-11T00:02:40.559Z,91.14
2017-01-11T00:03:45.770Z,91.61
2017-01-11T00:04:50.977Z,91.33
2017-01-11T00:05:56.176Z,91.71
2017-01-11T00:07:00.481Z,91.52
2017-01-11T00:08:06.679Z,91.71
2017-01-11T00:09:11.928Z,91.14
2017-01-11T00:10:18.111Z,91.52
2017-01-11T00:11:24.321Z,91.24
2017-01-11T00:12:30.467Z,91.33
2017-01-11T00:13:36.639Z,91.24
2017-01-11T00:14:40.042Z,91.42
2017-01-11T00:15:45.272Z,91.42
2017-01-11T00:16:51.441Z,91.61
2017-01-11T00:17:57.618Z,91.24
2017-01-11T00:19:03.778Z,91.71
2017-01-11T00:20:08.987Z,91.61
2017-01-11T00:21:15.168Z,91.52
2017-01-11T00:22:21.123Z,91.42
2017-01-11T00:23:27.285Z,91.42
2017-01-11T00:24:33.458Z,91.24
2017-01-11T00:25:39.630Z,91.42
2017-01-11T00:26:44.856Z,91.24
2017-01-11T00:27:49.997Z,91.42
2017-01-11T00:28:56.159Z,91.42
2017-01-11T00:30:02.324Z,91.24
2017-01-11T00:31:06.553Z,91.05
2017-01-11T00:32:12.754Z,91.42
2017-01-11T00:33:18.002Z,91.05
2017-01-11T00:34:49.838Z,91.24
2017-01-11T00:35:55.999Z,91.33
2017-01-11T00:37:02.214Z,91.52
2017-01-11T00:38:08.347Z,91.52
2017-01-11T00:39:14.509Z,91.24
2017-01-11T00:40:20.692Z,91.33
2017-01-11T00:41:26.864Z,91.71
2017-01-11T00:42:33.033Z,91.33
2017-01-11T00:43:39.200Z,91.9
2017-01-11T00:44:44.400Z,91.71
2017-01-11T00:45:48.605Z,91.52
2017-01-11T00:46:54.765Z,91.71
2017-01-11T00:48:00.971Z,91.9
2017-01-11T00:49:06.187Z,91.24
2017-01-11T00:50:12.484Z,91.52
2017-01-11T00:51:18.652Z,91.61
2017-01-11T00:52:24.818Z,91.52
2017-01-11T00:53:30.992Z,92.09
2017-01-11T00:54:35.195Z,91.42
2017-01-11T00:55:41.551Z,91.61
2017-01-11T00:56:46.788Z,91.61
2017-01-11T00:57:53.000Z,91.99
2017-01-11T00:58:59.173Z,91.9
2017-01-11T01:00:04.355Z,92.09
2017-01-11T01:01:09.551Z,91.9
2017-01-11T01:02:14.749Z,91.8
2017-01-11T01:03:20.951Z,91.9
2017-01-11T01:04:27.108Z,92.09
2017-01-11T01:05:32.357Z,91.61
2017-01-11T01:06:38.483Z,92.57
2017-01-11T01:07:44.653Z,91.71
2017-01-11T01:08:48.895Z,91.8
2017-01-11T01:09:55.061Z,92.18
2017-01-11T01:11:01.232Z,92.18
2017-01-11T01:12:07.398Z,92.18
2017-01-11T01:13:12.597Z,92.28
2017-01-11T01:14:15.917Z,92.28
2017-01-11T01:15:22.087Z,92.47
2017-01-11T01:16:27.350Z,92.18
2017-01-11T01:17:32.527Z,92.47
2017-01-11T01:18:38.434Z,92.38
2017-01-11T01:19:44.708Z,92.38
2017-01-11T01:20:50.900Z,92.18
2017-01-11T01:21:57.080Z,92.28
2017-01-11T01:23:03.261Z,92.28
2017-01-11T01:24:07.597Z,91.71
2017-01-11T01:25:13.757Z,91.99
2017-01-11T01:26:19.927Z,91.71
2017-01-11T01:27:25.131Z,92.09
2017-01-11T01:28:30.352Z,92.09
2017-01-11T01:29:36.527Z,92.47
2017-01-11T01:30:42.684Z,92.18
2017-01-11T01:31:48.859Z,91.99
2017-01-11T01:32:54.057Z,92.28
2017-01-11T01:33:59.265Z,92.18
2017-01-11T01:35:05.483Z,92.38
2017-01-11T01:36:11.655Z,92.47
2017-01-11T01:37:17.830Z,92.38
2017-01-11T01:38:24.000Z,92.28
2017-01-11T01:39:29.200Z,92.09
2017-01-11T01:40:33.442Z,92.66
2017-01-11T01:41:39.616Z,92.47
2017-01-11T01:42:45.778Z,92.38
2017-01-11T01:43:52.039Z,92.38
2017-01-11T01:44:57.232Z,92.18
2017-01-11T01:46:02.401Z,92.57
2017-01-11T01:47:08.650Z,92.38
2017-01-11T01:48:14.813Z,92.57
2017-01-11T01:49:20.995Z,92.85
2017-01-11T01:50:27.158Z,92.94
2017-01-11T01:51:33.331Z,92.85
2017-01-11T01:52:37.556Z,92.76
2017-01-11T01:53:42.760Z,93.04
2017-01-11T01:54:48.927Z,92.66
2017-01-11T01:55:55.097Z,93.04
2017-01-11T01:57:01.263Z,92.85
2017-01-11T01:58:06.465Z,93.23
2017-01-11T01:59:11.663Z,93.23
2017-01-11T02:00:16.850Z,93.23
2017-01-11T02:01:21.097Z,93.04
2017-01-11T02:02:27.275Z,93.13
2017-01-11T02:03:32.493Z,93.32
2017-01-11T02:04:37.696Z,93.32
2017-01-11T02:05:43.855Z,93.32
2017-01-11T02:06:49.090Z,93.41
2017-01-11T02:07:55.260Z,93.41
2017-01-11T02:09:00.463Z,93.51
2017-01-11T02:10:06.644Z,93.41
2017-01-11T02:11:12.812Z,93.13
2017-01-11T02:12:18.012Z,92.85
2017-01-11T02:13:22.241Z,93.23
2017-01-11T02:14:27.440Z,93.13
2017-01-11T02:15:32.658Z,92.76
2017-01-11T02:16:38.828Z,92.94
2017-01-11T02:17:44.997Z,92.57
2017-01-11T02:18:51.162Z,92.66
2017-01-11T02:19:56.363Z,92.66
2017-01-11T02:21:01.682Z,92.66
2017-01-11T02:22:07.860Z,92.66
2017-01-11T02:23:13.108Z,93.23
2017-01-11T02:24:19.270Z,92.94
2017-01-11T02:25:23.499Z,93.51
2017-01-11T02:26:28.697Z,93.41
2017-01-11T02:27:33.892Z,93.04
2017-01-11T02:28:40.063Z,93.32
2017-01-11T02:29:46.243Z,93.23
2017-01-11T02:30:50.444Z,93.41
2017-01-11T02:31:54.643Z,93.51
2017-01-11T02:32:58.936Z,93.41
2017-01-11T02:34:04.130Z,93.89
2017-01-11T02:35:10.302Z,93.51
2017-01-11T02:36:15.497Z,93.8
2017-01-11T02:37:19.775Z,94.18
2017-01-11T02:38:25.903Z,94.08
2017-01-11T02:39:32.066Z,94.08
2017-01-11T02:40:38.235Z,94.37
2017-01-11T02:41:43.400Z,93.99
2017-01-11T02:42:49.569Z,93.7
2017-01-11T02:43:55.731Z,93.99
2017-01-11T02:44:59.935Z,93.7
2017-01-11T02:46:05.128Z,94.18
2017-01-11T02:47:09.398Z,93.7
2017-01-11T02:48:15.528Z,94.27
2017-01-11T02:49:21.772Z,94.27
2017-01-11T02:50:26.302Z,94.08
2017-01-11T02:51:32.590Z,93.7
2017-01-11T02:52:36.852Z,93.7
2017-01-11T02:53:43.013Z,93.8
2017-01-11T02:54:48.192Z,94.27
2017-01-11T02:55:53.370Z,94.18
2017-01-11T02:56:59.564Z,94.08
2017-01-11T02:58:05.745Z,93.7
2017-01-11T02:59:11.864Z,94.08
2017-01-11T03:00:18.027Z,94.04
2017-01-11T03:01:24.195Z,93.99
2017-01-11T03:02:29.402Z,94.65
2017-01-11T03:03:35.566Z,93.94
2017-01-11T03:04:41.778Z,93.89
2017-01-11T03:05:47.908Z,93.99
2017-01-11T03:06:54.081Z,93.99
2017-01-11T03:07:59.271Z,93.99
2017-01-11T03:09:05.575Z,93.75
2017-01-11T03:10:10.777Z,94.18
2017-01-11T03:11:16.028Z,93.8
2017-01-11T03:12:22.203Z,93.99
2017-01-11T03:13:28.346Z,93.7
2017-01-11T03:14:33.543Z,93.89
2017-01-11T03:15:39.735Z,93.7
2017-01-11T03:16:43.965Z,94.08
2017-01-11T03:17:50.139Z,93.99
2017-01-11T03:18:55.342Z,93.94
2017-01-11T03:19:59.570Z,93.89
2017-01-11T03:21:04.774Z,93.75
2017-01-11T03:22:10.942Z,93.94
2017-01-11T03:23:15.166Z,93.84
2017-01-11T03:24:20.388Z,94.04
2017-01-11T03:25:25.598Z,94.13
2017-01-11T03:26:31.762Z,93.94
2017-01-11T03:27:37.929Z,93.75
2017-01-11T03:28:44.124Z,93.84
2017-01-11T03:29:50.298Z,93.65
2017-01-11T03:30:56.485Z,94.04
2017-01-11T03:32:01.690Z,94.13
2017-01-11T03:33:06.844Z,94.04
2017-01-11T03:34:13.006Z,93.56
2017-01-11T03:35:18.198Z,93.7
2017-01-11T03:36:24.405Z,93.94
2017-01-11T03:37:29.543Z,94.04
2017-01-11T03:38:33.773Z,94.04
2017-01-11T03:39:39.937Z,93.75
2017-01-11T03:40:45.146Z,94.04
2017-01-11T03:41:50.352Z,93.75
2017-01-11T03:42:56.546Z,93.65
2017-01-11T03:44:01.769Z,93.94
2017-01-11T03:45:07.893Z,93.94
2017-01-11T03:46:12.122Z,94.04
2017-01-11T03:47:16.326Z,94.13
2017-01-11T03:48:22.530Z,94.04
2017-01-11T03:49:28.656Z,94.04
2017-01-11T03:50:33.858Z,93.37
2017-01-11T03:51:40.021Z,93.46
2017-01-11T03:52:46.195Z,93.27
2017-01-11T03:53:52.361Z,93.27
2017-01-11T03:54:57.569Z,93.75
2017-01-11T03:56:03.751Z,93.84
2017-01-11T03:57:09.903Z,93.89
2017-01-11T03:58:16.071Z,93.94
2017-01-11T03:59:22.287Z,93.8
2017-01-11T04:00:28.473Z,93.75
2017-01-11T04:01:34.688Z,93.8
2017-01-11T04:02:39.911Z,93.46
2017-01-11T04:03:46.073Z,93.89
2017-01-11T04:04:52.236Z,93.41
2017-01-11T04:05:56.463Z,93.37
2017-01-11T04:07:01.793Z,93.51
2017-01-11T04:08:06.973Z,93.51
2017-01-11T04:09:13.189Z,93.37
2017-01-11T04:10:18.348Z,93.41
2017-01-11T04:11:23.546Z,93.23
2017-01-11T04:12:29.707Z,93.37
2017-01-11T04:13:32.977Z,93.51
2017-01-11T04:14:38.176Z,93.41
2017-01-11T04:15:44.451Z,93.23
2017-01-11T04:16:50.669Z,93.13
2017-01-11T04:17:55.801Z,93.32
2017-01-11T04:19:01.963Z,93.23
2017-01-11T04:20:08.142Z,93.51
2017-01-11T04:21:14.307Z,93.61
2017-01-11T04:22:20.565Z,93.51
2017-01-11T04:23:24.901Z,92.94
2017-01-11T04:24:29.100Z,93.51
2017-01-11T04:25:33.337Z,92.85
2017-01-11T04:26:38.561Z,93.04
2017-01-11T04:27:44.727Z,92.94
2017-01-11T04:28:50.897Z,93.04
2017-01-11T04:29:56.119Z,92.94
2017-01-11T04:31:02.290Z,93.32
2017-01-11T04:32:07.484Z,92.85
2017-01-11T04:33:13.687Z,92.85
2017-01-11T04:34:19.825Z,92.66
2017-01-11T04:35:25.991Z,93.04
2017-01-11T04:36:31.198Z,92.85
2017-01-11T04:37:36.362Z,93.23
2017-01-11T04:38:42.526Z,93.23
2017-01-11T04:39:47.730Z,93.51
2017-01-11T04:40:52.927Z,93.32
2017-01-11T04:41:58.103Z,93.23
2017-01-11T04:43:04.328Z,93.51
2017-01-11T04:44:10.495Z,93.32
2017-01-11T04:45:14.737Z,93.32
2017-01-11T04:46:20.616Z,93.41
2017-01-11T04:47:26.779Z,93.41
2017-01-11T04:48:31.977Z,93.61
2017-01-11T04:49:38.142Z,93.51
2017-01-11T04:50:42.368Z,93.51
2017-01-11T04:51:47.551Z,93.7
2017-01-11T04:52:52.764Z,93.61
2017-01-11T04:53:58.917Z,93.51
2017-01-11T04:55:04.119Z,93.51
2017-01-11T04:56:09.289Z,93.7
2017-01-11T04:57:14.491Z,93.32
2017-01-11T04:58:19.663Z,93.61
2017-01-11T04:59:24.903Z,93.23
2017-01-11T05:00:31.026Z,93.32
2017-01-11T05:01:37.191Z,93.51
2017-01-11T05:02:42.518Z,93.61
2017-01-11T05:03:48.686Z,93.32
2017-01-11T05:04:54.855Z,93.32
2017-01-11T05:06:01.081Z,93.51
2017-01-11T05:07:07.251Z,93.61
2017-01-11T05:08:13.411Z,93.51
2017-01-11T05:09:17.640Z,93.7
2017-01-11T05:10:23.806Z,93.8
2017-01-11T05:11:29.006Z,94.08
2017-01-11T05:12:35.173Z,94.18
2017-01-11T05:13:40.373Z,94.46
2017-01-11T05:14:46.581Z,94.56
2017-01-11T05:15:52.723Z,94.37
2017-01-11T05:16:57.894Z,94.27
2017-01-11T05:18:04.066Z,94.37
2017-01-11T05:19:10.339Z,93.99
2017-01-11T05:20:15.550Z,94.18
2017-01-11T05:21:21.711Z,94.46
2017-01-11T05:22:26.903Z,94.37
2017-01-11T05:23:33.068Z,94.37
2017-01-11T05:24:39.231Z,94.37
2017-01-11T05:25:44.482Z,94.37
2017-01-11T05:26:49.682Z,94.27
2017-01-11T05:27:55.845Z,94.27
2017-01-11T05:29:02.007Z,94.46
2017-01-11T05:30:08.187Z,94.65
2017-01-11T05:31:14.371Z,94.46
2017-01-11T05:32:19.547Z,94.18
2017-01-11T05:33:24.777Z,94.65
2017-01-11T05:34:30.908Z,94.27
2017-01-11T05:35:36.167Z,94.27
2017-01-11T05:36:42.330Z,94.84
2017-01-11T05:37:48.498Z,94.74
2017-01-11T05:38:54.716Z,94.93
2017-01-11T05:40:00.877Z,94.79
2017-01-11T05:41:06.076Z,94.65
2017-01-11T05:42:12.240Z,94.37
2017-01-11T05:43:18.408Z,94.74
2017-01-11T05:44:23.635Z,95.03
2017-01-11T05:45:29.788Z,94.93
2017-01-11T05:46:35.952Z,95.03
2017-01-11T05:47:41.193Z,94.65
2017-01-11T05:48:46.433Z,94.56
2017-01-11T05:49:52.601Z,94.46
2017-01-11T05:50:57.763Z,94.56
2017-01-11T05:52:04.050Z,94.37
2017-01-11T05:53:08.865Z,94.37
2017-01-11T05:54:15.037Z,94.37
2017-01-11T05:55:20.252Z,94.27
2017-01-11T05:56:25.445Z,94.46
2017-01-11T05:57:31.616Z,94.27
2017-01-11T05:58:37.786Z,94.27
2017-01-11T05:59:42.986Z,94.84
2017-01-11T06:00:49.219Z,94.46
2017-01-11T06:01:55.394Z,94.27
2017-01-11T06:03:00.657Z,94.56
2017-01-11T06:04:05.886Z,94.37
2017-01-11T06:05:10.051Z,94.37
2017-01-11T06:06:16.218Z,94.37
2017-01-11T06:07:22.441Z,94.56
2017-01-11T06:08:27.609Z,94.46
2017-01-11T06:09:33.774Z,94.27
2017-01-11T06:10:39.944Z,94.18
2017-01-11T06:11:45.186Z,94.08
2017-01-11T06:12:51.452Z,94.08
2017-01-11T06:13:55.069Z,94.27
2017-01-11T06:15:01.243Z,94.37
2017-01-11T06:16:07.462Z,94.37
2017-01-11T06:17:12.663Z,93.89
2017-01-11T06:18:18.858Z,93.99
2017-01-11T06:19:24.078Z,94.27
2017-01-11T06:20:29.260Z,93.99
2017-01-11T06:21:34.431Z,94.27
2017-01-11T06:22:40.595Z,94.27
2017-01-11T06:23:46.760Z,93.8
2017-01-11T06:24:52.928Z,93.8
2017-01-11T06:25:59.092Z,93.89
2017-01-11T06:27:05.262Z,93.8
2017-01-11T06:28:09.465Z,93.8
2017-01-11T06:29:14.665Z,93.61
2017-01-11T06:30:20.839Z,93.32
2017-01-11T06:31:27.006Z,93.51
2017-01-11T06:32:31.239Z,93.32
2017-01-11T06:33:37.400Z,93.41
2017-01-11T06:34:42.604Z,93.32
2017-01-11T06:35:47.800Z,93.41
2017-01-11T06:36:51.043Z,93.13
2017-01-11T06:37:56.298Z,92.66
2017-01-11T06:39:02.431Z,92.94
2017-01-11T06:40:08.590Z,93.04
2017-01-11T06:41:14.763Z,92.76
2017-01-11T06:42:20.933Z,93.04
2017-01-11T06:43:26.436Z,92.57
2017-01-11T06:44:31.634Z,92.38
2017-01-11T06:45:37.810Z,92.38
2017-01-11T06:46:44.017Z,92.94
2017-01-11T06:47:49.182Z,92.94
2017-01-11T06:48:55.343Z,92.94
2017-01-11T06:50:00.538Z,93.04
2017-01-11T06:51:05.847Z,92.85
2017-01-11T06:52:12.018Z,93.13
2017-01-11T06:53:18.224Z,93.61
2017-01-11T06:54:24.355Z,93.41
2017-01-11T06:55:30.518Z,93.13
2017-01-11T06:56:36.693Z,93.13
2017-01-11T06:57:42.864Z,93.32
2017-01-11T06:58:47.054Z,93.41
2017-01-11T06:59:53.215Z,93.32
2017-01-11T07:00:59.381Z,93.51
2017-01-11T07:02:05.546Z,93.32
2017-01-11T07:03:11.706Z,94.18
2017-01-11T07:04:17.885Z,93.41
2017-01-11T07:05:22.169Z,93.61
2017-01-11T07:06:28.345Z,93.51
2017-01-11T07:07:34.505Z,93.41
2017-01-11T07:08:40.673Z,93.23
2017-01-11T07:09:45.904Z,93.04
2017-01-11T07:10:52.044Z,93.32
2017-01-11T07:11:57.216Z,93.32
2017-01-11T07:13:02.412Z,93.32
2017-01-11T07:14:08.575Z,93.32
2017-01-11T07:15:13.785Z,93.23
2017-01-11T07:16:19.957Z,93.32
2017-01-11T07:17:24.162Z,93.23
2017-01-11T07:18:29.357Z,93.23
2017-01-11T07:19:35.520Z,93.32
2017-01-11T07:20:41.684Z,92.94
2017-01-11T07:21:47.852Z,92.76
2017-01-11T07:22:54.037Z,93.04
2017-01-11T07:24:00.205Z,93.13
2017-01-11T07:25:06.379Z,92.66
2017-01-11T07:26:12.184Z,92.76
2017-01-11T07:27:18.346Z,92.85
2017-01-11T07:28:22.685Z,92.57
2017-01-11T07:29:28.958Z,92.66
2017-01-11T07:30:35.131Z,92.94
2017-01-11T07:31:41.293Z,93.04
2017-01-11T07:32:47.474Z,92.66
2017-01-11T07:33:53.635Z,92.94
2017-01-11T07:34:58.875Z,92.18
2017-01-11T07:36:04.091Z,92.85
2017-01-11T07:37:10.256Z,92.47
2017-01-11T07:38:14.492Z,91.99
2017-01-11T07:39:19.691Z,91.99
2017-01-11T07:40:25.896Z,92.18
2017-01-11T07:41:32.188Z,92.09
2017-01-11T07:42:38.347Z,92.28
2017-01-11T07:43:44.582Z,91.61
2017-01-11T07:44:49.712Z,91.8
2017-01-11T07:45:55.878Z,91.52
2017-01-11T07:47:01.087Z,91.8
2017-01-11T07:48:05.365Z,91.71
2017-01-11T07:49:10.533Z,91.61
2017-01-11T07:50:16.800Z,91.52
2017-01-11T07:51:22.958Z,91.9
2017-01-11T07:52:28.165Z,91.33
2017-01-11T07:53:34.325Z,91.24
2017-01-11T07:54:40.539Z,91.52
2017-01-11T07:55:46.704Z,91.24
2017-01-11T07:56:52.920Z,90.76
2017-01-11T07:57:59.085Z,90.95
2017-01-11T07:59:05.254Z,90.57
2017-01-11T08:00:09.787Z,90.95
2017-01-11T08:01:14.978Z,90.57
2017-01-11T08:02:21.153Z,90.86
2017-01-11T08:03:27.363Z,90.57
2017-01-11T08:04:32.906Z,90.86
2017-01-11T08:05:39.070Z,90.52
2017-01-11T08:06:44.269Z,90.38
2017-01-11T08:07:50.451Z,90.33
2017-01-11T08:08:55.650Z,89.67
2017-01-11T08:10:00.829Z,89.86
2017-01-11T08:11:06.045Z,89.48
2017-01-11T08:12:12.235Z,89.48
2017-01-11T08:13:16.457Z,89.39
2017-01-11T08:14:22.723Z,89.29
2017-01-11T08:15:26.967Z,89.29
2017-01-11T08:16:33.155Z,89.1
2017-01-11T08:17:39.334Z,89.2
2017-01-11T08:18:45.497Z,89.39
2017-01-11T08:19:50.721Z,89
2017-01-11T08:20:56.917Z,89.67
2017-01-11T08:22:03.095Z,88.91
2017-01-11T08:23:06.321Z,89.1
2017-01-11T08:24:10.529Z,89.1
2017-01-11T08:25:16.687Z,89.1
2017-01-11T08:26:20.923Z,88.81
2017-01-11T08:27:27.088Z,88.43
2017-01-11T08:28:32.291Z,88.06
2017-01-11T08:29:38.451Z,87.49
2017-01-11T08:30:44.633Z,87.49
2017-01-11T08:31:50.799Z,87.58
2017-01-11T08:32:55.033Z,87.96
2017-01-11T08:34:00.320Z,87.96
2017-01-11T08:35:03.909Z,87.39
2017-01-11T08:36:10.082Z,87.68
2017-01-11T08:37:16.316Z,87.87
2017-01-11T08:38:21.495Z,87.77
2017-01-11T08:39:26.705Z,87.87
2017-01-11T08:40:31.980Z,87.77
2017-01-11T08:41:38.150Z,87.96
2017-01-11T08:42:44.430Z,87.77
2017-01-11T08:43:50.603Z,87.77
2017-01-11T08:44:55.808Z,87.87
2017-01-11T08:46:01.977Z,87.49
2017-01-11T08:47:08.150Z,87.3
2017-01-11T08:48:14.321Z,87.58
2017-01-11T08:49:20.574Z,87.96
2017-01-11T08:50:26.739Z,88.15
2017-01-11T08:51:32.917Z,88.62
2017-01-11T08:52:39.105Z,89.1
2017-01-11T08:53:45.292Z,89.39
2017-01-11T08:54:51.471Z,89.58
2017-01-11T08:55:57.649Z,89.67
2017-01-11T08:57:03.828Z,90.43
2017-01-11T08:58:09.033Z,90.33
2017-01-11T08:59:15.192Z,90.33
2017-01-11T09:00:21.361Z,91
2017-01-11T09:01:26.555Z,90.81
2017-01-11T09:02:31.758Z,91.09
2017-01-11T09:03:36.951Z,91
2017-01-11T09:04:42.221Z,91
2017-01-11T09:05:48.394Z,90.62
2017-01-11T09:06:54.561Z,91.66
2017-01-11T09:08:00.725Z,91.56
2017-01-11T09:09:05.940Z,91.28
2017-01-11T09:10:12.103Z,91.38
2017-01-11T09:11:18.293Z,91.75
2017-01-11T09:12:23.481Z,91.66
2017-01-11T09:13:29.655Z,92.42
2017-01-11T09:14:34.850Z,92.33
2017-01-11T09:15:40.060Z,92.99
2017-01-11T09:16:45.263Z,93.46
2017-01-11T09:17:51.426Z,93.37
2017-01-11T09:18:56.626Z,93.84
2017-01-11T09:20:02.789Z,94.03
2017-01-11T09:21:08.952Z,94.32
2017-01-11T09:22:15.117Z,95.07
2017-01-11T09:23:20.331Z,95.17
2017-01-11T09:24:26.521Z,95.55
2017-01-11T09:25:31.685Z,95.93
2017-01-11T09:26:37.852Z,96.17
2017-01-11T09:27:43.047Z,96.31
2017-01-11T09:28:48.246Z,96.83
2017-01-11T09:29:54.465Z,96.92
2017-01-11T09:31:00.633Z,96.45
2017-01-11T09:32:06.800Z,97.21
2017-01-11T09:33:13.042Z,97.12
2017-01-11T09:34:19.211Z,97.02
2017-01-11T09:35:25.396Z,97.31
2017-01-11T09:36:30.655Z,97.31
2017-01-11T09:37:35.857Z,97.5
2017-01-11T09:38:42.021Z,98.07
2017-01-11T09:39:47.222Z,97.88
2017-01-11T09:40:52.424Z,97.97
2017-01-11T09:41:58.584Z,98.35
2017-01-11T09:43:04.815Z,97.69
2017-01-11T09:44:10.999Z,97.69
2017-01-11T09:45:17.160Z,98.44
2017-01-11T09:46:23.341Z,97.97
2017-01-11T09:47:28.528Z,98.54
2017-01-11T09:48:34.696Z,98.35
2017-01-11T09:49:39.897Z,98.07
2017-01-11T09:50:46.063Z,98.07
2017-01-11T09:51:52.247Z,98.25
2017-01-11T09:52:58.404Z,97.97
2017-01-11T09:54:04.576Z,98.44
2017-01-11T09:55:10.772Z,98.07
2017-01-11T09:56:17.022Z,98.35
2017-01-11T09:57:23.195Z,98.44
2017-01-11T09:58:28.401Z,98.73
2017-01-11T09:59:34.560Z,99.06
2017-01-11T10:00:40.728Z,98.87
2017-01-11T10:01:46.090Z,99.01
2017-01-11T10:02:51.473Z,98.92
2017-01-11T10:03:57.717Z,98.82
2017-01-11T10:05:03.881Z,98.87
2017-01-11T10:06:10.082Z,98.68
2017-01-11T10:07:15.271Z,98.92
2017-01-11T10:08:21.437Z,99.26
2017-01-11T10:09:25.632Z,98.82
2017-01-11T10:10:30.818Z,98.92
2017-01-11T10:11:36.028Z,98.92
2017-01-11T10:12:41.246Z,98.92
2017-01-11T10:13:44.448Z,98.63
2017-01-11T10:14:50.621Z,98.92
2017-01-11T10:15:56.782Z,98.92
2017-01-11T10:17:01.954Z,98.92
2017-01-11T10:18:07.118Z,99.11
2017-01-11T10:19:12.318Z,99.06
2017-01-11T10:20:18.479Z,98.68
2017-01-11T10:21:24.678Z,99.2
2017-01-11T10:22:30.808Z,98.82
2017-01-11T10:23:36.025Z,99.26
2017-01-11T10:24:42.166Z,99.96
2017-01-11T10:25:48.327Z,99.73
2017-01-11T10:26:54.492Z,99.73
2017-01-11T10:27:59.705Z,99.91
2017-01-11T10:29:04.903Z,99.82
2017-01-11T10:30:11.127Z,99.73
2017-01-11T10:31:16.318Z,99.91
2017-01-11T10:32:21.535Z,99.99
2017-01-11T10:33:27.673Z,99.73
2017-01-11T10:34:31.890Z,99.54
2017-01-11T10:35:38.052Z,99.82
2017-01-11T10:36:43.264Z,99.73
2017-01-11T10:37:49.433Z,99.82
2017-01-11T10:38:52.714Z,99.82
2017-01-11T10:39:57.918Z,99.99
2017-01-11T10:41:02.127Z,99.99
2017-01-11T10:42:06.350Z,99.63
2017-01-11T10:43:11.569Z,99.82
2017-01-11T10:44:16.773Z,99.99
2017-01-11T10:45:22.943Z,99.73
2017-01-11T10:46:28.142Z,99.63
2017-01-11T10:47:32.382Z,99.82
2017-01-11T10:48:36.615Z,99.99
2017-01-11T10:49:41.835Z,99.99
2017-01-11T10:50:48.000Z,99.99
2017-01-11T10:51:53.213Z,99.99
2017-01-11T10:52:58.413Z,99.99
2017-01-11T10:54:02.607Z,99.99
2017-01-11T10:55:07.810Z,99.63
2017-01-11T10:56:13.015Z,99.99
2017-01-11T10:57:19.181Z,99.91
2017-01-11T10:58:23.416Z,99.99
2017-01-11T10:59:26.653Z,99.99
2017-01-11T11:00:32.828Z,99.99
2017-01-11T11:01:38.023Z,99.99
2017-01-11T11:02:43.224Z,99.99
2017-01-11T11:03:47.428Z,99.99
2017-01-11T11:04:52.630Z,99.99
2017-01-11T11:05:58.797Z,99.99
2017-01-11T11:07:04.001Z,99.99
2017-01-11T11:08:09.165Z,99.99
2017-01-11T11:09:14.366Z,99.63
2017-01-11T11:10:19.573Z,99.99
2017-01-11T11:11:22.842Z,99.99
2017-01-11T11:12:28.045Z,99.91
2017-01-11T11:13:33.245Z,99.73
2017-01-11T11:14:37.452Z,99.99
2017-01-11T11:15:41.659Z,99.99
2017-01-11T11:16:44.898Z,99.99
2017-01-11T11:17:49.756Z,99.99
2017-01-11T11:18:54.954Z,99.73
2017-01-11T11:19:58.187Z,99.99
2017-01-11T11:21:04.354Z,99.91
2017-01-11T11:22:09.554Z,99.91
2017-01-11T11:23:14.752Z,99.44
2017-01-11T11:24:19.957Z,99.63
2017-01-11T11:25:26.121Z,99.73
2017-01-11T11:26:30.353Z,99.99
2017-01-11T11:27:36.512Z,99.99
2017-01-11T11:28:41.712Z,99.99
2017-01-11T11:29:47.659Z,99.99
2017-01-11T11:30:53.792Z,99.63
2017-01-11T11:31:59.001Z,99.82
2017-01-11T11:33:04.204Z,99.99
2017-01-11T11:34:10.419Z,99.99
2017-01-11T11:35:16.590Z,99.97
2017-01-11T11:36:21.820Z,99.99
2017-01-11T11:37:25.120Z,99.97
2017-01-11T11:38:30.292Z,99.97
2017-01-11T11:39:34.527Z,99.99
2017-01-11T11:40:40.692Z,99.99
2017-01-11T11:41:46.868Z,99.99
2017-01-11T11:42:52.166Z,99.99
2017-01-11T11:43:58.330Z,99.97
2017-01-11T11:45:04.502Z,99.99
2017-01-11T11:46:10.676Z,99.99
2017-01-11T11:47:15.877Z,99.99
2017-01-11T11:48:21.075Z,99.97
2017-01-11T11:49:25.350Z,99.99
2017-01-11T11:51:35.785Z,99.99
2017-01-11T11:52:41.952Z,99.99
2017-01-11T11:53:48.096Z,99.77
2017-01-11T11:54:53.336Z,99.99
2017-01-11T11:55:59.499Z,99.97
2017-01-11T11:57:04.671Z,99.97
2017-01-11T11:58:09.842Z,99.99
2017-01-11T11:59:13.074Z,99.99
2017-01-11T12:00:19.252Z,99.99
2017-01-11T12:01:25.424Z,99.99
2017-01-11T12:02:29.628Z,99.99
2017-01-11T12:03:34.837Z,99.99
2017-01-11T12:04:40.009Z,99.99
2017-01-11T12:05:45.208Z,99.99
2017-01-11T12:06:51.434Z,99.99
2017-01-11T12:07:56.639Z,99.99
2017-01-11T12:09:02.589Z,99.99
2017-01-11T12:10:07.788Z,99.4
2017-01-11T12:11:11.032Z,99.99
2017-01-11T12:12:16.201Z,99.97
2017-01-11T12:13:21.392Z,99.77
2017-01-11T12:14:24.661Z,99.77
2017-01-11T12:15:30.833Z,99.97
2017-01-11T12:16:37.038Z,99.97
2017-01-11T12:17:43.202Z,99.83
2017-01-11T12:18:49.492Z,99.99
2017-01-11T12:19:54.690Z,99.73
2017-01-11T12:20:59.893Z,99.35
2017-01-11T12:22:06.058Z,98.88
2017-01-11T12:23:11.255Z,98.88
2017-01-11T12:24:17.430Z,98.88
2017-01-11T12:25:22.626Z,99.44
2017-01-11T12:26:27.892Z,99.16
2017-01-11T12:27:33.091Z,99.07
2017-01-11T12:28:38.288Z,98.79
2017-01-11T12:29:44.450Z,99.07
2017-01-11T12:30:49.650Z,98.59
2017-01-11T12:31:54.851Z,98.02
2017-01-11T12:33:01.058Z,98.59
2017-01-11T12:34:07.184Z,98.59
2017-01-11T12:35:13.352Z,97.83
2017-01-11T12:36:16.591Z,97.92
2017-01-11T12:37:21.793Z,98.02
2017-01-11T12:38:27.073Z,97.45
2017-01-11T12:39:30.318Z,97.6
2017-01-11T12:40:34.692Z,97.22
2017-01-11T12:41:40.254Z,97.41
2017-01-11T12:42:45.432Z,97.22
2017-01-11T12:43:51.609Z,97.03
2017-01-11T12:44:57.770Z,96.93
2017-01-11T12:46:03.951Z,96.36
2017-01-11T12:47:10.114Z,96.26
2017-01-11T12:48:16.282Z,96.74
2017-01-11T12:49:21.485Z,97.03
2017-01-11T12:50:25.706Z,96.45
2017-01-11T12:51:31.894Z,96.45
2017-01-11T12:52:38.062Z,96.65
2017-01-11T12:53:43.259Z,96.45
2017-01-11T12:54:49.431Z,96.45
2017-01-11T12:55:55.599Z,96.45
2017-01-11T12:57:01.798Z,95.79
2017-01-11T12:58:06.011Z,95.41
2017-01-11T12:59:11.218Z,96.17
2017-01-11T13:00:16.393Z,95.51
2017-01-11T13:01:22.585Z,94.84
2017-01-11T13:02:28.762Z,94.84
2017-01-11T13:03:34.931Z,94.65
2017-01-11T13:04:40.131Z,94.84
2017-01-11T13:05:46.299Z,95.12
2017-01-11T13:06:51.509Z,94.93
2017-01-11T13:07:56.678Z,95.08
2017-01-11T13:09:01.891Z,95.03
2017-01-11T13:10:06.117Z,94.46
2017-01-11T13:11:11.325Z,94.7
2017-01-11T13:12:15.529Z,94.18
2017-01-11T13:13:19.801Z,93.32
2017-01-11T13:14:24.036Z,93.6
2017-01-11T13:15:30.246Z,94.08
2017-01-11T13:16:35.399Z,94.56
2017-01-11T13:17:40.601Z,94.56
2017-01-11T13:18:45.790Z,94.27
2017-01-11T13:19:52.045Z,93.89
2017-01-11T13:20:58.206Z,94.65
2017-01-11T13:22:04.388Z,94.18
2017-01-11T13:23:09.582Z,94.7
2017-01-11T13:24:12.811Z,94.65
2017-01-11T13:25:16.093Z,94.03
2017-01-11T13:26:19.332Z,93.75
2017-01-11T13:27:22.673Z,94.03
2017-01-11T13:28:26.939Z,93.18
2017-01-11T13:29:32.154Z,92.89
2017-01-11T13:30:38.312Z,93.08
2017-01-11T13:31:41.587Z,93.46
2017-01-11T13:32:46.789Z,93.65
2017-01-11T13:33:52.037Z,92.89
2017-01-11T13:34:58.210Z,93.18
2017-01-11T13:36:02.422Z,92.7
2017-01-11T13:37:07.619Z,92.51
2017-01-11T13:38:13.793Z,91.75
2017-01-11T13:39:18.994Z,91.75
2017-01-11T13:40:23.222Z,91.56
2017-01-11T13:41:29.388Z,91.75
2017-01-11T13:42:34.635Z,91.94
2017-01-11T13:43:39.757Z,92.13
2017-01-11T13:44:44.983Z,91.66
2017-01-11T13:45:50.176Z,92.7
2017-01-11T13:46:55.385Z,92.51
2017-01-11T13:48:01.566Z,92.37
2017-01-11T13:49:06.905Z,92.61
2017-01-11T13:50:12.070Z,92.8
2017-01-11T13:51:16.275Z,92.89
2017-01-11T13:52:20.520Z,92.89
2017-01-11T13:53:25.727Z,93.23
2017-01-11T13:54:30.927Z,91.61
2017-01-11T13:55:37.111Z,91.47
2017-01-11T13:56:42.307Z,90.89
2017-01-11T13:57:47.502Z,91.85
2017-01-11T13:58:51.738Z,90.8
2017-01-11T13:59:56.942Z,90.99
2017-01-11T14:01:02.145Z,90.8
2017-01-11T14:02:06.383Z,91.08
2017-01-11T14:03:12.557Z,91.18
2017-01-11T14:04:16.761Z,91.18
2017-01-11T14:05:21.929Z,90.52
2017-01-11T14:06:28.121Z,89.28
2017-01-11T14:07:33.333Z,89.47